Yacuiba Airport
SLYA : rendu visible

Aérodrome :











RETROUVEZ-NOUS SUR...

 
LOGIN :

S'inscrire | Disclaimer

   EN    FR    IT 

 









Légende :    VFR   VFR Marginal   IFR   IFR Intensif   IFR Très Intensif
Visi : 
Plafond : 
>= 8 km
>= 3000ft
5 à 8 km
1000 à 3000 ft
1500m à 5 km
500 à 1000 ft
800 à 1500m
200 à 500 ft
< 800m
< 200 ft
Symboles :   Orages  Brouillard  Fortes neiges  Fortes précipitations  Vent > 20 kt






- Altitude de l'aérodrome : 2112 ft
- Code IATA : BYC


SLYA - Yacuiba

METAR N/A
TAF AMD TAF SLYA
Valide du 20 à 12h jusqu'au 21 à 12h UTC


201200Z 2012/2112 00000KT 6000 RA BKN010 OVC070 TX24/ 2019Z TN19/2111Z
BECMG 2014/2016 21012KT 9999 NSW SCT013 BKN070
BECMG 2020/2022 BKN010 FEW025CB OVC070
PROB30
TEMPO 2023/2101 6000 TSRA
BECMG 2103/2105 00000KT BKN005 OVC070



MET'MAP, la Météo Aéronautique d'un coup d'oeil ! - Copyright ORBIFLY Décembre 2007 - Disclaimer

ORBIFLY MET'MAP TEAM :

Programmation & Développement : Alexandra Zaïnal
Sur une idée originale de : Baudouin d'Aumeries
Assistance à la programmation : Marc-Olivier Méhu
Soutien technique & logistique : Manuel Goepfert

Contact : metmap@orbifly.com




SOURCES & CREDITS :

   NOAA       Earth
Advisory